Sign in

Advertising

Advertising

Info

Aviation weather - KDAB

METAR KDAB 311653Z 26005KT 10SM FEW022 SCT090 BKN150 31/24 A3007 RMK AO2 SLP181 T03060244

Aviation weather from ADDS. Re-check weather before flight.

-